createdAt,value
2019-04-25T00:01:53.204Z,8.8
2019-04-25T00:06:58.471Z,7.9
2019-04-25T00:12:03.617Z,8.4
2019-04-25T00:17:07.276Z,8.7
2019-04-25T00:22:12.805Z,9
2019-04-25T00:27:18.148Z,8.9
2019-04-25T00:32:25.130Z,9
2019-04-25T00:37:31.908Z,8.8
2019-04-25T00:42:37.355Z,8.5
2019-04-25T00:47:44.731Z,9.1
2019-04-25T00:52:51.927Z,8.5
2019-04-25T00:57:56.791Z,9.1
2019-04-25T01:03:04.101Z,9.1
2019-04-25T01:08:09.650Z,9.6
2019-04-25T01:13:16.250Z,9.1
2019-04-25T01:18:23.038Z,9.1
2019-04-25T01:23:30.993Z,9.2
2019-04-25T01:28:37.997Z,9.3
2019-04-25T01:33:44.164Z,9.5
2019-04-25T01:38:50.884Z,9.8
2019-04-25T01:43:59.663Z,9.9
2019-04-25T01:48:56.512Z,9.7
2019-04-25T01:54:03.969Z,9.7
2019-04-25T01:59:09.596Z,10
2019-04-25T02:04:14.711Z,9.9
2019-04-25T02:09:20.044Z,9.3
2019-04-25T02:14:25.047Z,9.8
2019-04-25T02:19:30.854Z,9.8
2019-04-25T02:24:39.039Z,10
2019-04-25T02:29:45.600Z,10
2019-04-25T02:34:50.933Z,9.5
2019-04-25T02:39:51.097Z,10.5
2019-04-25T02:44:59.162Z,10.1
2019-04-25T02:50:08.365Z,10.6
2019-04-25T02:55:11.054Z,12
2019-04-25T03:00:09.714Z,10.5
2019-04-25T03:05:15.461Z,10.6
2019-04-25T03:10:26.983Z,11
2019-04-25T03:15:25.368Z,10.7
2019-04-25T03:20:30.300Z,10.5
2019-04-25T03:25:36.936Z,10.4
2019-04-25T03:30:44.606Z,11.3
2019-04-25T03:35:50.229Z,11.4
2019-04-25T03:40:57.005Z,11.6
2019-04-25T03:46:05.922Z,11.9
2019-04-25T03:51:05.702Z,12.3
2019-04-25T03:56:12.874Z,11.7
2019-04-25T04:01:20.068Z,11.5
2019-04-25T04:06:25.110Z,12.2
2019-04-25T04:11:30.327Z,12
2019-04-25T04:16:37.288Z,11.5
2019-04-25T04:21:44.159Z,11.4
2019-04-25T04:26:49.394Z,11.5
2019-04-25T04:31:52.869Z,11.1
2019-04-25T04:36:59.020Z,11.9
2019-04-25T04:42:05.013Z,11.7
2019-04-25T04:47:14.375Z,11.5
2019-04-25T04:52:23.405Z,12.1
2019-04-25T04:57:36.655Z,11.6
2019-04-25T05:02:33.329Z,12.1
2019-04-25T05:07:38.593Z,11.5
2019-04-25T05:12:44.849Z,12.2
2019-04-25T05:17:50.190Z,11.9
2019-04-25T05:22:55.877Z,11.4
2019-04-25T05:28:05.275Z,12
2019-04-25T05:33:11.221Z,11.6
2019-04-25T05:38:15.371Z,11.2
2019-04-25T05:43:24.301Z,11.4
2019-04-25T05:48:30.490Z,11.6
2019-04-25T05:53:37.880Z,11.4
2019-04-25T05:58:44.728Z,10.7
2019-04-25T06:03:49.960Z,11.3
2019-04-25T06:08:55.049Z,11.6
2019-04-25T06:14:01.273Z,11.7
2019-04-25T06:19:18.426Z,11
2019-04-25T06:24:08.068Z,11.2
2019-04-25T06:29:14.284Z,10.2
2019-04-25T06:34:30.741Z,10.2
2019-04-25T06:39:29.026Z,9.9
2019-04-25T06:44:29.369Z,10
2019-04-25T06:49:38.395Z,10.5
2019-04-25T06:54:36.679Z,9.2
2019-04-25T06:59:44.719Z,10.2
2019-04-25T07:04:51.922Z,10.3
2019-04-25T07:09:58.979Z,10.2
2019-04-25T07:15:04.909Z,9.2
2019-04-25T07:20:10.083Z,9.2
2019-04-25T07:25:15.736Z,8.9
2019-04-25T07:30:48.174Z,9.7
2019-04-25T07:35:27.908Z,9.2
2019-04-25T07:40:36.054Z,9.1
2019-04-25T07:45:43.488Z,9
2019-04-25T07:50:47.473Z,8.6
2019-04-25T07:55:54.097Z,9.1
2019-04-25T08:00:53.935Z,8.1
2019-04-25T08:06:00.144Z,8
2019-04-25T08:11:07.254Z,7.9
2019-04-25T08:16:15.400Z,8.2
2019-04-25T08:21:12.621Z,7.6
2019-04-25T08:26:18.839Z,7.4
2019-04-25T08:31:25.054Z,7.1
2019-04-25T08:36:36.647Z,6.8
2019-04-25T08:41:36.016Z,7.1
2019-04-25T08:46:38.514Z,7.3
2019-04-25T08:51:37.780Z,6.8
2019-04-25T08:56:44.806Z,6.9
2019-04-25T09:01:50.431Z,6.6
2019-04-25T09:06:57.103Z,6.7
2019-04-25T09:12:02.196Z,7.1
2019-04-25T09:17:09.278Z,7.1
2019-04-25T09:22:14.658Z,6.7
2019-04-25T09:27:20.320Z,6.6
2019-04-25T09:32:27.325Z,7.6
2019-04-25T09:37:38.706Z,7.4
2019-04-25T09:42:36.971Z,7.9
2019-04-25T09:47:37.130Z,7.4
2019-04-25T09:52:48.705Z,7.4
2019-04-25T09:57:47.542Z,7.1
2019-04-25T10:02:55.141Z,7.3
2019-04-25T10:07:59.364Z,6.9
2019-04-25T10:13:07.143Z,7.5
2019-04-25T10:18:15.112Z,7.2
2019-04-25T10:23:27.539Z,7.2
2019-04-25T10:28:25.113Z,7.3
2019-04-25T10:33:30.493Z,7.6
2019-04-25T10:38:39.338Z,7.1
2019-04-25T10:43:45.952Z,7.3
2019-04-25T10:48:56.954Z,7.4
2019-04-25T10:54:03.979Z,6.7
2019-04-25T10:59:09.421Z,7.2
2019-04-25T11:04:14.769Z,7.2
2019-04-25T11:09:15.009Z,7.1
2019-04-25T11:14:19.991Z,7
2019-04-25T11:19:26.870Z,6.9
2019-04-25T11:24:30.507Z,6.6
2019-04-25T11:29:39.647Z,7.1
2019-04-25T11:34:40.841Z,6.7
2019-04-25T11:39:44.994Z,7.2
2019-04-25T11:44:46.381Z,6.9
2019-04-25T11:49:46.290Z,6.8
2019-04-25T11:54:48.352Z,7.7
2019-04-25T11:59:50.584Z,7
2019-04-25T12:04:49.827Z,6.5
2019-04-25T12:09:56.629Z,6.8
2019-04-25T12:15:01.925Z,6.3
2019-04-25T12:20:11.875Z,6
2019-04-25T12:25:17.025Z,6.3
2019-04-25T12:30:41.562Z,5.9
2019-04-25T12:35:34.205Z,5.9
2019-04-25T12:40:39.336Z,6.3
2019-04-25T12:45:45.729Z,5.6
2019-04-25T12:50:54.207Z,5.8
2019-04-25T12:56:00.372Z,4.6
2019-04-25T13:01:05.586Z,3.2
2019-04-25T13:06:10.595Z,3.2
2019-04-25T13:11:17.661Z,3.5
2019-04-25T13:16:24.275Z,3.8
2019-04-25T13:21:29.613Z,3.7
2019-04-25T13:26:34.716Z,5.1
2019-04-25T13:31:40.205Z,4.1
2019-04-25T13:36:45.505Z,3.9
2019-04-25T13:41:51.404Z,3.9
2019-04-25T13:46:59.096Z,4.3
2019-04-25T13:52:04.655Z,4.3
2019-04-25T13:57:09.748Z,3.9
2019-04-25T14:02:15.093Z,2.9
2019-04-25T14:07:20.634Z,3.4
2019-04-25T14:12:23.563Z,3.2
2019-04-25T14:17:25.749Z,3.6
2019-04-25T14:22:32.539Z,3.9
2019-04-25T14:27:37.915Z,3.7
2019-04-25T14:32:44.474Z,3.7
2019-04-25T14:37:49.772Z,3.7
2019-04-25T14:42:55.271Z,3
2019-04-25T14:48:00.822Z,3.3
2019-04-25T14:53:06.314Z,3.6
2019-04-25T14:58:09.851Z,3.7
2019-04-25T15:03:15.116Z,3.8
2019-04-25T15:08:18.717Z,4
2019-04-25T15:13:24.053Z,4.1
2019-04-25T15:18:31.806Z,3.8
2019-04-25T15:23:43.112Z,4.3
2019-04-25T15:28:48.369Z,4.3
2019-04-25T15:33:53.966Z,4.2
2019-04-25T15:38:59.199Z,3.9
2019-04-25T15:44:04.454Z,4.2
2019-04-25T15:49:09.301Z,3.8
2019-04-25T15:54:14.310Z,3.8
2019-04-25T15:59:19.592Z,4
2019-04-25T16:04:20.559Z,4.9
2019-04-25T16:09:25.729Z,4.2
2019-04-25T16:14:33.193Z,4.3
2019-04-25T16:19:39.375Z,3.6
2019-04-25T16:24:48.712Z,4.2
2019-04-25T16:29:53.746Z,4.5
2019-04-25T16:35:02.776Z,4.4
2019-04-25T16:40:08.480Z,4.3
2019-04-25T16:45:12.911Z,5.5
2019-04-25T16:50:22.153Z,5.4
2019-04-25T16:55:26.735Z,5.4
2019-04-25T17:00:34.086Z,5.5
2019-04-25T17:05:35.404Z,5.9
2019-04-25T17:10:42.910Z,5.9
2019-04-25T17:15:51.004Z,5.5
2019-04-25T17:20:55.999Z,5.4
2019-04-25T17:25:59.510Z,5.3
2019-04-25T17:31:04.734Z,5.3
2019-04-25T17:36:10.695Z,5.5
2019-04-25T17:41:20.034Z,6.3
2019-04-25T17:46:27.399Z,6.3
2019-04-25T17:51:30.075Z,6.3
2019-04-25T17:56:37.257Z,5.5
2019-04-25T18:01:43.005Z,5.7
2019-04-25T18:06:48.757Z,5.6
2019-04-25T18:11:53.880Z,6.2
2019-04-25T18:16:58.225Z,5.7
2019-04-25T18:22:03.306Z,5.8
2019-04-25T18:27:09.697Z,5.8
2019-04-25T18:32:14.805Z,5.9
2019-04-25T18:37:20.443Z,5.9
2019-04-25T18:42:25.330Z,6.6
2019-04-25T18:47:33.491Z,6.4
2019-04-25T18:52:38.609Z,6.4
2019-04-25T18:57:45.492Z,6.8
2019-04-25T19:02:50.057Z,10
2019-04-25T19:07:57.891Z,10.8
2019-04-25T19:13:13.792Z,8.7
2019-04-25T19:18:11.894Z,7.7
2019-04-25T19:23:16.900Z,7.1
2019-04-25T19:28:22.068Z,6.7
2019-04-25T19:33:36.677Z,6.5
2019-04-25T19:38:34.048Z,6.4
2019-04-25T19:43:42.023Z,5.7
2019-04-25T19:48:48.884Z,6.1
2019-04-25T19:53:55.447Z,6.1
2019-04-25T19:59:00.500Z,7
2019-04-25T20:04:05.940Z,6.8
2019-04-25T20:09:11.036Z,6.6
2019-04-25T20:14:16.157Z,6.6
2019-04-25T20:19:21.321Z,7.2
2019-04-25T20:24:26.714Z,7
2019-04-25T20:29:30.478Z,7.3
2019-04-25T20:34:38.452Z,7.4
2019-04-25T20:39:45.882Z,7.6
2019-04-25T20:44:52.560Z,7
2019-04-25T20:49:57.573Z,6.8
2019-04-25T20:55:03.190Z,5.9
2019-04-25T21:00:08.423Z,6.5
2019-04-25T21:05:13.874Z,5.7
2019-04-25T21:10:19.118Z,5.6
2019-04-25T21:15:22.580Z,5.6
2019-04-25T21:20:27.623Z,5.6
2019-04-25T21:25:32.579Z,5.6
2019-04-25T21:30:37.738Z,6.2
2019-04-25T21:35:42.927Z,6.6
2019-04-25T21:40:49.886Z,5.9
2019-04-25T21:45:58.243Z,5.8
2019-04-25T21:51:07.161Z,5.7
2019-04-25T21:56:10.990Z,5.7
2019-04-25T22:01:16.149Z,5.9
2019-04-25T22:06:21.403Z,6.2
2019-04-25T22:11:26.604Z,6.4
2019-04-25T22:16:31.698Z,9.8
2019-04-25T22:21:39.620Z,6.6
2019-04-25T22:26:45.001Z,5.5
2019-04-25T22:31:48.545Z,6.4
2019-04-25T22:36:53.585Z,5.4
2019-04-25T22:42:00.775Z,5.4
2019-04-25T22:47:00.764Z,6.1
2019-04-25T22:52:07.931Z,5.7
2019-04-25T22:57:15.123Z,6.7
2019-04-25T23:02:22.074Z,6.4
2019-04-25T23:07:28.316Z,6.4
2019-04-25T23:12:34.298Z,5.8
2019-04-25T23:17:39.773Z,6.2
2019-04-25T23:22:46.577Z,6
2019-04-25T23:27:52.537Z,6.6
2019-04-25T23:32:58.589Z,6.3
2019-04-25T23:38:03.664Z,6
2019-04-25T23:43:11.737Z,6.1
2019-04-25T23:48:17.913Z,5.9
2019-04-25T23:53:22.968Z,6.3
2019-04-25T23:58:28.370Z,5.6
